Time;durP1;ratioP1;P1;durP2;ratioP2;P2;SDS_P1;SDS_P2;PMS_P1;PMS_P2;Temp;Humidity;BMP_temperature;BMP_pressure;BME280_temperature;BME280_humidity;BME280_pressure;Samples;Min_cycle;Max_cycle;Signal;HPM_P1;HPM_P2
2023/11/09 00:01:48;;;;;;;18.15;5.13;;;7.40;99.90;;;;;;5054766;28;20045;-74
2023/11/09 00:04:15;;;;;;;13.65;2.28;;;7.40;99.90;;;;;;5054084;28;20496;-75
2023/11/09 00:06:42;;;;;;;18.17;3.50;;;7.40;99.90;;;;;;5054181;28;20422;-74
2023/11/09 00:09:09;;;;;;;14.20;3.67;;;7.40;99.90;;;;;;5054766;28;20064;-75
2023/11/09 00:11:39;;;;;;;20.88;3.58;;;7.40;99.90;;;;;;5054527;28;20189;-78
2023/11/09 00:14:15;;;;;;;8.50;2.45;;;7.40;99.90;;;;;;5054756;28;20091;-75
2023/11/09 00:16:46;;;;;;;12.45;3.45;;;7.40;99.90;;;;;;5052719;28;20403;-75
2023/11/09 00:19:13;;;;;;;21.83;3.28;;;7.40;99.90;;;;;;5054368;28;20053;-75
2023/11/09 00:21:40;;;;;;;21.90;2.95;;;7.40;99.90;;;;;;5053245;28;20098;-75
2023/11/09 00:24:10;;;;;;;13.23;3.78;;;7.40;99.90;;;;;;5053907;28;20448;-76
2023/11/09 00:26:38;;;;;;;16.33;3.53;;;7.40;99.90;;;;;;5054159;28;20080;-75
2023/11/09 00:29:05;;;;;;;11.63;3.50;;;7.40;99.90;;;;;;5052919;28;20094;-74
2023/11/09 00:31:32;;;;;;;11.30;2.70;;;7.30;99.90;;;;;;5053906;28;20102;-75
2023/11/09 00:33:58;;;;;;;15.30;5.10;;;7.30;99.90;;;;;;5053119;28;20087;-75
2023/11/09 00:36:26;;;;;;;17.38;2.83;;;7.30;99.90;;;;;;5053898;28;20055;-75
2023/11/09 00:38:53;;;;;;;19.45;3.60;;;7.30;99.90;;;;;;5053907;28;20052;-75
2023/11/09 00:41:20;;;;;;;13.82;2.83;;;7.30;99.90;;;;;;5053751;28;20045;-76
2023/11/09 00:43:47;;;;;;;25.70;4.70;;;7.30;99.90;;;;;;5053993;28;20052;-75
2023/11/09 00:46:13;;;;;;;19.13;3.80;;;7.40;99.90;;;;;;5053577;28;20053;-75
2023/11/09 00:48:40;;;;;;;19.08;4.63;;;7.30;99.90;;;;;;5053534;28;20052;-75
2023/11/09 00:51:07;;;;;;;13.18;3.63;;;7.30;99.90;;;;;;5054145;28;20045;-75
2023/11/09 00:53:35;;;;;;;16.67;4.85;;;7.30;99.90;;;;;;5053783;28;20045;-76
2023/11/09 00:56:02;;;;;;;27.27;4.03;;;7.20;99.90;;;;;;5053822;28;20140;-75
2023/11/09 00:58:28;;;;;;;17.08;4.90;;;7.30;99.90;;;;;;5058311;28;20120;-75
2023/11/09 01:00:55;;;;;;;17.77;2.92;;;7.20;99.90;;;;;;5073997;28;20094;-75
2023/11/09 01:03:22;;;;;;;16.15;4.20;;;7.20;99.90;;;;;;5072885;28;20044;-75
2023/11/09 01:05:49;;;;;;;16.80;2.80;;;7.20;99.90;;;;;;5073384;28;20094;-75
2023/11/09 01:08:16;;;;;;;17.77;3.05;;;7.20;99.90;;;;;;5073655;28;20087;-73
2023/11/09 01:10:43;;;;;;;21.40;4.32;;;7.30;99.90;;;;;;5070281;28;20052;-73
2023/11/09 01:13:10;;;;;;;12.15;2.67;;;7.30;99.90;;;;;;5072732;28;20052;-75
2023/11/09 01:15:37;;;;;;;17.70;3.28;;;7.30;99.90;;;;;;5066377;28;20411;-74
2023/11/09 01:18:06;;;;;;;15.55;3.47;;;7.30;99.90;;;;;;4721782;28;9999828;-73
2023/11/09 01:20:33;;;;;;;17.05;3.70;;;7.30;99.90;;;;;;5073073;28;20049;-74
2023/11/09 01:23:01;;;;;;;12.95;3.35;;;7.30;99.90;;;;;;5072983;28;20068;-75
2023/11/09 01:25:28;;;;;;;22.67;4.47;;;7.30;99.90;;;;;;5072585;28;20117;-74
2023/11/09 01:27:54;;;;;;;12.13;3.33;;;7.40;99.90;;;;;;5072907;28;20052;-74
2023/11/09 01:30:21;;;;;;;15.20;3.72;;;7.40;99.90;;;;;;5072787;28;20070;-73
2023/11/09 01:32:48;;;;;;;22.73;3.35;;;7.40;99.90;;;;;;5073511;28;20044;-74
2023/11/09 01:35:15;;;;;;;11.55;2.78;;;7.40;99.90;;;;;;5072776;28;20102;-73
2023/11/09 01:37:42;;;;;;;18.95;3.90;;;7.40;99.90;;;;;;5072958;28;20044;-73
2023/11/09 01:40:10;;;;;;;14.40;2.47;;;7.50;99.90;;;;;;5073115;28;20040;-73
2023/11/09 01:42:36;;;;;;;17.17;3.03;;;7.40;99.90;;;;;;5073049;28;20235;-74
2023/11/09 01:45:05;;;;;;;17.13;3.40;;;7.50;99.90;;;;;;5072688;28;20102;-74
2023/11/09 01:47:33;;;;;;;14.27;2.75;;;7.40;99.90;;;;;;5073759;28;20055;-74
2023/11/09 01:50:04;;;;;;;12.77;3.15;;;7.40;99.90;;;;;;5072162;28;20086;-74
2023/11/09 01:52:31;;;;;;;16.63;3.80;;;7.40;99.90;;;;;;5072969;28;20048;-74
2023/11/09 01:54:58;;;;;;;24.08;4.70;;;7.40;99.90;;;;;;5055068;28;20047;-73
2023/11/09 01:57:25;;;;;;;15.75;4.93;;;7.50;99.90;;;;;;5072652;28;20058;-74
2023/11/09 01:59:52;;;;;;;24.25;3.55;;;7.50;99.90;;;;;;5054390;28;20060;-75
2023/11/09 02:02:18;;;;;;;19.48;3.10;;;7.50;99.90;;;;;;5073232;28;20064;-75
2023/11/09 02:04:45;;;;;;;17.80;2.80;;;7.50;99.90;;;;;;5054661;28;20085;-74
2023/11/09 02:07:12;;;;;;;17.52;3.88;;;7.50;99.90;;;;;;5072316;28;20045;-75
2023/11/09 02:09:39;;;;;;;21.13;2.60;;;7.50;99.90;;;;;;5072185;28;20044;-75
2023/11/09 02:12:07;;;;;;;23.42;2.92;;;7.50;99.90;;;;;;5054563;28;20052;-74
2023/11/09 02:14:34;;;;;;;29.85;4.75;;;7.50;99.90;;;;;;5054488;28;20041;-74
2023/11/09 02:17:02;;;;;;;15.30;3.25;;;7.50;99.90;;;;;;5071584;28;20094;-75
2023/11/09 02:19:30;;;;;;;17.77;3.20;;;7.50;99.90;;;;;;5054632;28;20098;-74
2023/11/09 02:21:57;;;;;;;17.92;2.28;;;7.50;99.90;;;;;;5072281;28;20059;-74
2023/11/09 02:24:25;;;;;;;17.23;3.03;;;7.50;99.90;;;;;;5038281;28;20074;-74
2023/11/09 02:26:52;;;;;;;12.30;3.03;;;7.50;99.90;;;;;;5038339;28;20048;-74
2023/11/09 02:29:22;;;;;;;10.30;3.42;;;7.40;99.90;;;;;;5072781;28;20457;-74
2023/11/09 02:31:49;;;;;;;13.15;2.47;;;7.50;99.90;;;;;;5069196;28;20075;-74
2023/11/09 02:34:19;;;;;;;36.58;3.65;;;7.50;99.90;;;;;;5072068;28;20055;-75
2023/11/09 02:36:46;;;;;;;18.27;3.67;;;7.40;99.90;;;;;;5054043;28;20037;-74
2023/11/09 02:39:14;;;;;;;21.58;3.60;;;7.40;99.90;;;;;;5054489;28;20560;-74
2023/11/09 02:41:41;;;;;;;12.60;2.53;;;7.50;99.90;;;;;;5073950;28;20053;-75
2023/11/09 02:44:08;;;;;;;11.20;2.92;;;7.40;99.90;;;;;;5075759;28;20106;-74
2023/11/09 02:46:35;;;;;;;31.38;6.32;;;7.40;99.90;;;;;;5075390;28;20048;-74
2023/11/09 02:49:02;;;;;;;14.10;2.80;;;7.40;99.90;;;;;;5076227;28;20048;-74
2023/11/09 02:51:29;;;;;;;14.80;5.53;;;7.40;99.90;;;;;;5076021;28;20047;-74
2023/11/09 02:53:56;;;;;;;20.77;4.50;;;7.40;99.90;;;;;;5077239;28;20048;-74
2023/11/09 02:56:22;;;;;;;22.38;4.13;;;7.40;99.90;;;;;;5076187;28;20048;-74
2023/11/09 02:58:49;;;;;;;18.15;3.30;;;7.40;99.90;;;;;;5075264;28;20040;-74
2023/11/09 03:01:18;;;;;;;15.50;3.35;;;7.50;99.90;;;;;;5075799;28;20049;-74
2023/11/09 03:03:45;;;;;;;13.63;3.42;;;7.50;99.90;;;;;;5058108;28;20056;-74
2023/11/09 03:06:14;;;;;;;24.65;3.60;;;7.50;99.90;;;;;;5075639;28;20434;-74
2023/11/09 03:08:41;;;;;;;28.58;3.75;;;7.50;99.90;;;;;;5075215;28;20083;-73
2023/11/09 03:11:09;;;;;;;11.32;2.53;;;7.60;99.90;;;;;;5075881;28;20040;-73
2023/11/09 03:13:39;;;;;;;18.83;4.65;;;7.60;99.90;;;;;;5069045;28;20045;-72
2023/11/09 03:16:07;;;;;;;12.82;2.55;;;7.70;99.90;;;;;;5075673;28;20056;-74
2023/11/09 03:18:34;;;;;;;15.45;2.47;;;7.60;99.90;;;;;;5057246;28;20052;-74
2023/11/09 03:21:01;;;;;;;21.70;3.47;;;7.70;99.90;;;;;;5075911;28;20048;-74
2023/11/09 03:23:28;;;;;;;25.48;4.90;;;7.70;99.90;;;;;;5074791;28;20236;-74
2023/11/09 03:25:55;;;;;;;14.48;3.28;;;7.70;99.90;;;;;;5075259;28;20040;-74
2023/11/09 03:28:21;;;;;;;20.58;4.20;;;7.70;99.90;;;;;;5074050;28;20514;-73
2023/11/09 03:30:48;;;;;;;20.20;5.45;;;7.70;99.90;;;;;;5075398;28;20375;-74
2023/11/09 03:33:15;;;;;;;11.85;3.03;;;7.70;99.90;;;;;;5074944;28;20048;-74
2023/11/09 03:35:42;;;;;;;19.50;3.25;;;7.70;99.90;;;;;;5063877;28;20457;-74
2023/11/09 03:38:09;;;;;;;24.80;3.42;;;7.70;99.90;;;;;;5074501;28;20316;-74
2023/11/09 03:40:36;;;;;;;12.50;2.95;;;7.70;99.90;;;;;;5057197;28;20071;-73
2023/11/09 03:43:02;;;;;;;16.02;3.38;;;7.80;99.90;;;;;;5056657;28;20499;-75
2023/11/09 03:45:29;;;;;;;20.02;3.05;;;7.70;99.90;;;;;;5075467;28;20044;-74
2023/11/09 03:47:56;;;;;;;15.57;2.88;;;7.70;99.90;;;;;;5074859;28;20313;-74
2023/11/09 03:50:23;;;;;;;16.25;3.70;;;7.70;99.90;;;;;;5075757;28;20117;-74
2023/11/09 03:52:50;;;;;;;19.15;3.92;;;7.70;99.90;;;;;;5074457;28;20049;-74
2023/11/09 03:55:17;;;;;;;16.58;2.63;;;7.70;99.90;;;;;;5074167;28;20098;-73
2023/11/09 03:57:44;;;;;;;16.70;2.63;;;7.70;99.90;;;;;;5060257;28;20040;-74
2023/11/09 04:00:11;;;;;;;28.95;4.25;;;7.80;99.90;;;;;;5074973;28;20053;-74
2023/11/09 04:02:40;;;;;;;17.27;3.72;;;7.90;99.90;;;;;;5074443;28;20569;-74
2023/11/09 04:05:11;;;;;;;18.30;3.42;;;7.80;99.90;;;;;;5074439;28;20044;-74
2023/11/09 04:07:41;;;;;;;16.35;3.70;;;7.90;99.90;;;;;;5074193;28;20091;-74
2023/11/09 04:10:09;;;;;;;16.50;3.08;;;7.90;99.90;;;;;;5074203;28;20040;-73
2023/11/09 04:12:36;;;;;;;16.23;2.83;;;8.00;99.90;;;;;;5074722;28;20135;-72
2023/11/09 04:15:04;;;;;;;16.95;4.00;;;8.10;99.90;;;;;;5073944;28;20048;-74
2023/11/09 04:17:31;;;;;;;18.05;3.28;;;8.10;99.90;;;;;;5074531;28;20048;-73
2023/11/09 04:20:04;;;;;;;17.33;3.10;;;8.20;99.90;;;;;;5073971;28;20606;-75
2023/11/09 04:22:31;;;;;;;25.42;5.35;;;8.20;99.90;;;;;;5073808;28;20045;-75
2023/11/09 04:24:57;;;;;;;17.85;3.08;;;8.30;99.90;;;;;;5074326;28;20431;-73
2023/11/09 04:27:24;;;;;;;13.05;2.67;;;8.30;99.90;;;;;;5074289;28;20049;-74
2023/11/09 04:29:52;;;;;;;20.85;3.47;;;8.30;99.90;;;;;;5073446;28;20048;-74
2023/11/09 04:32:18;;;;;;;17.02;2.83;;;8.30;99.90;;;;;;5074153;28;20044;-74
2023/11/09 04:34:45;;;;;;;18.73;2.80;;;8.30;99.90;;;;;;5073551;28;20098;-74
2023/11/09 04:37:13;;;;;;;20.60;3.45;;;8.40;99.90;;;;;;5073483;28;20127;-74
2023/11/09 04:39:42;;;;;;;23.45;2.90;;;8.30;99.90;;;;;;5073274;28;20116;-73
2023/11/09 04:42:09;;;;;;;17.95;3.58;;;8.40;99.90;;;;;;5055935;28;20404;-74
2023/11/09 04:44:40;;;;;;;23.52;3.95;;;8.30;99.90;;;;;;5073167;28;20052;-73
2023/11/09 04:47:11;;;;;;;18.90;2.95;;;8.40;99.90;;;;;;5073700;28;20040;-74
2023/11/09 04:49:45;;;;;;;22.80;5.50;;;8.30;99.90;;;;;;5073533;28;20048;-73
2023/11/09 04:52:16;;;;;;;18.15;2.97;;;8.30;99.90;;;;;;5073791;28;20037;-74
2023/11/09 04:54:56;;;;;;;23.58;3.13;;;8.30;99.90;;;;;;5059871;28;20049;-73
2023/11/09 05:08:38;;;;;;;23.25;3.35;;;8.40;99.90;;;;;;5072498;28;20483;-74
2023/11/09 05:11:04;;;;;;;9.35;2.55;;;8.40;99.90;;;;;;5072881;28;20075;-75
2023/11/09 05:13:31;;;;;;;13.38;3.72;;;8.40;99.90;;;;;;5058190;28;20063;-74
2023/11/09 05:15:58;;;;;;;21.80;3.28;;;8.40;99.90;;;;;;5072359;28;20051;-75
2023/11/09 05:18:26;;;;;;;20.08;4.35;;;8.60;99.90;;;;;;5073188;28;20037;-75
2023/11/09 05:20:53;;;;;;;19.77;2.65;;;8.50;99.90;;;;;;5072616;28;20048;-75
2023/11/09 05:23:20;;;;;;;15.77;2.67;;;8.50;99.90;;;;;;5073013;28;20071;-74
2023/11/09 05:25:46;;;;;;;12.05;2.60;;;8.50;99.90;;;;;;5072771;28;20650;-74
2023/11/09 05:28:13;;;;;;;15.48;3.17;;;8.60;99.90;;;;;;5072734;28;20194;-74
2023/11/09 05:30:41;;;;;;;14.20;3.05;;;8.60;99.90;;;;;;5072784;28;20040;-75
2023/11/09 05:33:07;;;;;;;14.60;2.90;;;8.60;99.90;;;;;;5055129;28;20110;-74
2023/11/09 05:35:34;;;;;;;13.98;3.03;;;8.50;99.90;;;;;;5073009;28;20435;-75
2023/11/09 05:38:03;;;;;;;18.38;3.85;;;8.50;99.90;;;;;;5055063;28;20044;-75
2023/11/09 05:40:30;;;;;;;15.15;3.33;;;8.50;99.90;;;;;;5073290;28;20415;-74
2023/11/09 05:42:57;;;;;;;16.50;4.28;;;8.50;99.90;;;;;;5072192;28;20143;-75
2023/11/09 05:45:23;;;;;;;14.18;3.40;;;8.50;99.90;;;;;;5073106;28;20056;-75
2023/11/09 05:47:51;;;;;;;21.17;3.83;;;8.50;99.90;;;;;;5072025;28;20057;-75
2023/11/09 05:50:18;;;;;;;26.92;3.53;;;8.40;99.90;;;;;;5055067;28;20048;-75
2023/11/09 05:52:45;;;;;;;17.08;2.15;;;8.50;99.90;;;;;;5072800;28;20090;-74
2023/11/09 05:55:12;;;;;;;16.52;2.92;;;8.50;99.90;;;;;;5073450;28;20044;-74
2023/11/09 05:57:39;;;;;;;17.33;3.15;;;8.70;99.90;;;;;;5072923;28;20041;-75
2023/11/09 06:00:06;;;;;;;13.27;3.13;;;8.60;99.90;;;;;;5072362;28;20048;-75
2023/11/09 06:02:33;;;;;;;16.58;3.13;;;8.60;99.90;;;;;;5054723;28;20037;-74
2023/11/09 06:05:00;;;;;;;18.90;3.30;;;8.60;99.90;;;;;;5055333;28;20063;-74
2023/11/09 06:07:27;;;;;;;22.67;3.75;;;8.60;99.90;;;;;;5072747;28;20090;-75
2023/11/09 06:09:54;;;;;;;20.02;3.15;;;8.70;99.90;;;;;;5072489;28;20094;-75
2023/11/09 06:12:21;;;;;;;17.77;4.32;;;8.70;99.90;;;;;;5073298;28;20055;-75
2023/11/09 06:14:48;;;;;;;11.23;2.92;;;8.70;99.90;;;;;;5074004;28;20053;-75
2023/11/09 06:17:15;;;;;;;16.45;3.50;;;8.70;99.90;;;;;;5058523;28;20063;-75
2023/11/09 06:19:42;;;;;;;18.60;2.97;;;8.70;99.90;;;;;;5076186;28;20575;-75
2023/11/09 06:22:09;;;;;;;16.63;2.30;;;8.80;99.90;;;;;;5066371;28;20049;-73
2023/11/09 06:24:46;;;;;;;15.63;3.05;;;8.80;99.90;;;;;;5046955;28;20079;-73
2023/11/09 06:27:16;;;;;;;19.48;3.40;;;8.80;99.90;;;;;;5064283;28;20036;-74
2023/11/09 06:29:43;;;;;;;26.42;5.32;;;8.70;99.90;;;;;;5069093;28;20056;-73
2023/11/09 06:32:10;;;;;;;19.15;2.90;;;8.80;99.90;;;;;;5074048;28;20114;-74
2023/11/09 06:34:36;;;;;;;21.65;3.05;;;8.80;99.90;;;;;;5074954;28;20044;-73
2023/11/09 06:37:03;;;;;;;13.07;3.65;;;8.80;99.90;;;;;;4705378;28;9999913;-74
2023/11/09 06:39:30;;;;;;;12.10;2.83;;;8.80;99.90;;;;;;5073595;28;20100;-75
2023/11/09 06:41:57;;;;;;;24.45;4.55;;;8.70;99.90;;;;;;5073199;28;20440;-75
2023/11/09 06:44:24;;;;;;;19.17;3.63;;;8.70;99.90;;;;;;5072901;28;20051;-75
2023/11/09 06:46:51;;;;;;;15.32;4.20;;;8.70;99.90;;;;;;5072819;28;20580;-74
2023/11/09 06:49:20;;;;;;;16.77;2.92;;;8.60;99.90;;;;;;5072650;28;20049;-76
2023/11/09 06:51:47;;;;;;;17.10;3.15;;;8.60;99.90;;;;;;5073495;28;20426;-75
2023/11/09 06:54:14;;;;;;;15.98;3.53;;;8.50;99.90;;;;;;5072925;28;20044;-76
2023/11/09 06:56:41;;;;;;;22.70;6.30;;;8.50;99.90;;;;;;5072498;28;20215;-75
2023/11/09 06:59:08;;;;;;;20.13;5.30;;;8.50;99.90;;;;;;5072573;28;20053;-74
2023/11/09 07:01:38;;;;;;;13.23;2.92;;;8.40;99.90;;;;;;5072249;28;20049;-70
2023/11/09 07:04:05;;;;;;;16.95;5.93;;;8.40;99.90;;;;;;5067036;28;20565;-75
2023/11/09 07:06:32;;;;;;;17.23;5.70;;;8.30;99.90;;;;;;5054978;28;20106;-74
2023/11/09 07:09:03;;;;;;;23.20;7.65;;;8.30;99.90;;;;;;5073219;28;20569;-74
2023/11/09 07:11:31;;;;;;;23.92;11.30;;;8.30;99.90;;;;;;5070972;28;20558;-73
2023/11/09 07:13:57;;;;;;;19.02;6.38;;;8.20;99.90;;;;;;5058415;28;20063;-74
2023/11/09 07:16:24;;;;;;;14.50;3.08;;;8.10;99.90;;;;;;5068594;28;20041;-75
2023/11/09 07:18:52;;;;;;;13.50;2.72;;;8.10;99.90;;;;;;5046837;28;20431;-76
2023/11/09 07:21:21;;;;;;;6.20;1.90;;;8.00;99.90;;;;;;5072675;28;20056;-75
2023/11/09 07:23:50;;;;;;;15.23;3.47;;;8.00;99.90;;;;;;5071458;28;20056;-75
2023/11/09 07:26:17;;;;;;;6.07;2.00;;;7.90;99.90;;;;;;5064436;28;20123;-74
2023/11/09 07:28:44;;;;;;;13.77;3.05;;;7.80;99.90;;;;;;5054540;28;20075;-76
2023/11/09 07:31:11;;;;;;;15.38;3.55;;;7.80;99.90;;;;;;5072860;28;20037;-76
2023/11/09 07:33:39;;;;;;;12.80;2.15;;;7.80;99.90;;;;;;5071241;28;20052;-74
2023/11/09 07:36:10;;;;;;;13.60;3.85;;;7.70;99.90;;;;;;5071484;28;20052;-76
2023/11/09 07:38:37;;;;;;;11.23;2.28;;;7.70;99.90;;;;;;5070661;28;20258;-68
2023/11/09 07:41:04;;;;;;;11.00;1.85;;;7.70;99.90;;;;;;5072292;28;20549;-68
2023/11/09 07:43:31;;;;;;;9.20;1.92;;;7.70;99.90;;;;;;5068879;28;20056;-68
2023/11/09 07:45:58;;;;;;;8.50;2.90;;;7.70;99.90;;;;;;5073403;28;20048;-70
2023/11/09 07:48:26;;;;;;;13.88;3.53;;;7.70;99.90;;;;;;5071381;28;20569;-71
2023/11/09 07:50:53;;;;;;;8.38;1.90;;;7.70;99.90;;;;;;5069843;28;20076;-72
2023/11/09 07:53:21;;;;;;;17.45;2.70;;;7.80;99.90;;;;;;5072573;28;20032;-71
2023/11/09 07:55:51;;;;;;;15.48;2.25;;;7.70;99.90;;;;;;5071293;28;20055;-71
2023/11/09 07:58:19;;;;;;;6.40;2.03;;;7.80;99.90;;;;;;5073840;28;20049;-71
2023/11/09 08:00:46;;;;;;;13.70;2.25;;;7.90;99.90;;;;;;5074578;28;20122;-71
2023/11/09 08:03:17;;;;;;;13.85;3.17;;;8.00;99.90;;;;;;5067535;28;20044;-70
2023/11/09 08:05:46;;;;;;;7.93;2.15;;;8.00;99.90;;;;;;5074209;28;20048;-71
2023/11/09 08:08:14;;;;;;;4.93;1.67;;;8.00;99.90;;;;;;5073777;28;20037;-71
2023/11/09 08:10:41;;;;;;;8.57;1.70;;;8.10;99.90;;;;;;5074100;28;20515;-71
2023/11/09 08:13:08;;;;;;;10.98;2.25;;;8.20;99.90;;;;;;5073234;28;20037;-71
2023/11/09 08:15:35;;;;;;;6.00;1.77;;;8.20;99.90;;;;;;5072655;28;20479;-71
2023/11/09 08:18:02;;;;;;;4.80;1.42;;;8.30;99.90;;;;;;5071686;28;20051;-71
2023/11/09 08:20:29;;;;;;;3.63;1.33;;;8.40;99.90;;;;;;5073035;28;20036;-72
2023/11/09 08:22:56;;;;;;;8.15;1.30;;;8.40;99.90;;;;;;5071944;28;20572;-72
2023/11/09 08:25:23;;;;;;;8.07;2.58;;;8.50;99.90;;;;;;5071911;28;20048;-70
2023/11/09 08:27:53;;;;;;;8.10;0.98;;;8.50;99.90;;;;;;5069271;28;20063;-70
2023/11/09 08:30:26;;;;;;;3.05;1.10;;;8.60;99.90;;;;;;5072603;28;20044;-71
2023/11/09 08:32:54;;;;;;;6.68;1.60;;;8.60;99.90;;;;;;5069610;28;20487;-72
2023/11/09 08:35:24;;;;;;;8.05;1.55;;;8.60;99.90;;;;;;5073468;28;20135;-72
2023/11/09 08:37:55;;;;;;;7.97;1.60;;;8.60;99.90;;;;;;5060251;28;20044;-70
2023/11/09 08:40:27;;;;;;;5.03;1.23;;;8.60;99.90;;;;;;5062373;28;20047;-71
2023/11/09 08:42:56;;;;;;;7.38;1.30;;;8.60;99.90;;;;;;5070125;28;20626;-71
2023/11/09 08:45:24;;;;;;;8.00;1.83;;;8.60;99.90;;;;;;5070719;28;20062;-71
2023/11/09 08:47:53;;;;;;;9.23;1.70;;;8.60;99.90;;;;;;5054824;28;20045;-70
2023/11/09 08:50:21;;;;;;;8.25;2.20;;;8.60;99.90;;;;;;5055875;28;20048;-71
2023/11/09 08:52:48;;;;;;;10.90;1.90;;;8.70;99.90;;;;;;5072025;28;20056;-70
2023/11/09 08:55:16;;;;;;;7.05;1.48;;;8.70;99.90;;;;;;5072470;28;20051;-69
2023/11/09 08:57:43;;;;;;;15.63;2.47;;;8.70;99.90;;;;;;5072654;28;20215;-71
2023/11/09 09:00:11;;;;;;;10.05;1.63;;;8.70;99.90;;;;;;5071781;28;20054;-71
2023/11/09 09:02:48;;;;;;;13.00;2.03;;;8.70;99.90;;;;;;5071085;28;20560;-72
2023/11/09 09:05:18;;;;;;;8.10;1.70;;;8.80;99.90;;;;;;5070853;28;20121;-71
2023/11/09 09:07:53;;;;;;;6.03;1.40;;;8.80;99.90;;;;;;5071545;28;20139;-70
2023/11/09 09:10:26;;;;;;;9.90;1.67;;;8.90;99.90;;;;;;5071193;28;20135;-70
2023/11/09 09:12:56;;;;;;;6.38;1.65;;;8.80;99.90;;;;;;5070605;28;20083;-70
2023/11/09 09:15:24;;;;;;;13.77;2.35;;;8.80;99.90;;;;;;5071279;28;20051;-71
2023/11/09 09:17:52;;;;;;;6.80;1.17;;;8.80;99.90;;;;;;5071900;28;20523;-71
2023/11/09 09:20:20;;;;;;;7.05;1.35;;;8.80;99.90;;;;;;5071798;28;20040;-70
2023/11/09 09:22:49;;;;;;;8.40;1.63;;;8.90;99.90;;;;;;5054889;28;20052;-70
2023/11/09 09:25:16;;;;;;;9.55;1.35;;;8.90;99.90;;;;;;5071620;28;20045;-70
2023/11/09 09:27:46;;;;;;;10.70;1.10;;;8.90;99.90;;;;;;5054967;28;20045;-71
2023/11/09 09:30:17;;;;;;;8.13;1.98;;;9.00;99.90;;;;;;5072170;28;20419;-71
2023/11/09 09:32:45;;;;;;;7.50;1.30;;;9.00;99.90;;;;;;5071420;28;20044;-70
2023/11/09 09:35:14;;;;;;;3.72;1.38;;;9.00;99.90;;;;;;5038375;28;20044;-70
2023/11/09 09:37:42;;;;;;;6.13;1.38;;;9.00;99.90;;;;;;5056815;28;20049;-72
2023/11/09 09:40:15;;;;;;;8.83;1.47;;;9.10;99.90;;;;;;4713547;28;9999749;-70
2023/11/09 09:42:43;;;;;;;5.30;1.40;;;9.20;99.90;;;;;;5053272;28;20083;-71
2023/11/09 09:45:15;;;;;;;4.43;1.10;;;9.20;99.90;;;;;;5069674;28;20067;-72
2023/11/09 09:47:48;;;;;;;3.83;0.93;;;9.30;99.90;;;;;;5050355;28;20413;-70
2023/11/09 09:50:16;;;;;;;10.85;3.55;;;9.30;99.90;;;;;;5052233;28;20041;-70
2023/11/09 09:52:46;;;;;;;4.03;1.52;;;9.40;99.90;;;;;;5070573;28;20040;-71
2023/11/09 09:55:14;;;;;;;4.40;1.30;;;9.50;99.90;;;;;;5070241;28;20082;-72
2023/11/09 09:57:43;;;;;;;3.58;1.13;;;9.60;99.90;;;;;;5071717;28;20044;-70
2023/11/09 10:00:23;;;;;;;7.70;1.20;;;9.60;99.90;;;;;;5071527;28;20048;-71
2023/11/09 10:02:51;;;;;;;4.13;1.20;;;9.60;99.90;;;;;;5055660;28;20040;-71
2023/11/09 10:05:18;;;;;;;11.10;1.58;;;9.70;99.90;;;;;;5072073;28;20052;-72
2023/11/09 10:08:08;;;;;;;7.82;1.10;;;9.60;99.90;;;;;;5054783;28;20059;-72
2023/11/09 10:10:49;;;;;;;6.85;0.98;;;9.70;99.90;;;;;;5072267;28;20562;-71
2023/11/09 10:13:18;;;;;;;8.40;1.42;;;9.60;99.90;;;;;;5071666;28;20239;-70
2023/11/09 10:15:46;;;;;;;8.95;1.27;;;9.70;99.90;;;;;;5071562;28;20073;-70
2023/11/09 10:18:12;;;;;;;8.60;1.80;;;9.70;99.90;;;;;;5071758;28;20056;-70
2023/11/09 10:20:40;;;;;;;7.40;2.25;;;9.70;99.90;;;;;;5071730;28;20049;-70
2023/11/09 10:23:11;;;;;;;4.47;0.77;;;9.80;99.90;;;;;;5052521;28;20489;-70
2023/11/09 10:25:38;;;;;;;9.88;1.30;;;9.90;99.90;;;;;;5064121;28;20048;-70
2023/11/09 10:28:07;;;;;;;7.25;1.80;;;9.90;99.90;;;;;;5031846;28;20041;-71
2023/11/09 10:30:37;;;;;;;9.20;2.55;;;9.90;99.90;;;;;;5072491;28;20056;-71
2023/11/09 10:33:08;;;;;;;5.03;1.45;;;9.90;99.90;;;;;;5071567;28;20344;-71
2023/11/09 10:35:37;;;;;;;7.85;1.08;;;10.10;99.90;;;;;;5071614;28;20049;-71
2023/11/09 10:38:12;;;;;;;7.25;1.40;;;10.10;99.90;;;;;;5071753;28;20049;-71
2023/11/09 10:40:41;;;;;;;4.45;1.30;;;10.10;99.90;;;;;;5072496;28;20040;-70
2023/11/09 10:43:33;;;;;;;15.45;3.47;;;10.10;99.90;;;;;;5056551;28;20188;-70
2023/11/09 10:46:04;;;;;;;4.28;0.90;;;10.20;99.90;;;;;;5072021;28;20490;-71
2023/11/09 10:48:32;;;;;;;5.30;1.85;;;10.20;99.90;;;;;;5069068;28;20048;-70
2023/11/09 10:51:03;;;;;;;3.13;1.17;;;10.20;99.90;;;;;;5037941;28;20053;-71
2023/11/09 10:53:32;;;;;;;4.07;0.98;;;10.10;99.90;;;;;;5053977;28;20041;-70
2023/11/09 10:55:59;;;;;;;9.93;1.35;;;10.10;99.90;;;;;;5071206;28;20295;-71
2023/11/09 10:58:33;;;;;;;7.50;1.10;;;10.10;99.90;;;;;;5068861;28;20501;-70
2023/11/09 11:01:02;;;;;;;10.88;2.38;;;10.00;99.90;;;;;;5037774;28;20041;-70
2023/11/09 11:03:37;;;;;;;8.55;1.10;;;10.10;99.90;;;;;;5056771;28;20507;-70
2023/11/09 11:06:09;;;;;;;7.82;1.60;;;10.10;99.90;;;;;;5074978;28;20510;-70
2023/11/09 11:08:49;;;;;;;4.57;0.98;;;10.00;99.90;;;;;;5074921;28;20053;-69
2023/11/09 11:11:28;;;;;;;4.55;1.05;;;10.10;99.90;;;;;;5074937;28;20049;-70
2023/11/09 11:14:04;;;;;;;3.88;0.93;;;10.10;99.90;;;;;;5057736;28;20545;-70
2023/11/09 11:16:46;;;;;;;5.55;1.52;;;10.10;99.90;;;;;;5037182;28;20103;-70
2023/11/09 11:19:23;;;;;;;9.05;2.15;;;10.10;99.90;;;;;;5055935;28;20402;-70
2023/11/09 11:22:25;;;;;;;7.88;1.85;;;10.00;99.90;;;;;;5056635;28;20487;-70
2023/11/09 11:25:14;;;;;;;6.43;1.48;;;10.00;99.90;;;;;;5073811;28;20464;-70
2023/11/09 11:27:48;;;;;;;7.40;1.48;;;10.00;99.90;;;;;;5056144;28;20070;-70
2023/11/09 11:30:41;;;;;;;6.47;1.08;;;10.00;99.90;;;;;;5067531;28;20090;-71
2023/11/09 11:33:16;;;;;;;9.88;1.98;;;10.00;99.90;;;;;;5067736;28;20135;-70
2023/11/09 11:35:46;;;;;;;4.70;1.63;;;10.00;99.90;;;;;;5040727;28;20049;-70
2023/11/09 11:38:13;;;;;;;6.15;1.30;;;10.10;99.90;;;;;;5073982;28;20483;-69
2023/11/09 11:40:40;;;;;;;5.20;1.40;;;10.10;99.90;;;;;;5073822;28;20049;-70
2023/11/09 11:43:08;;;;;;;7.40;1.35;;;10.10;99.90;;;;;;5074451;28;20047;-70
2023/11/09 11:45:36;;;;;;;8.93;1.73;;;10.10;99.90;;;;;;5073882;28;20048;-70
2023/11/09 11:48:05;;;;;;;4.25;1.65;;;10.10;99.90;;;;;;5039954;28;20045;-70
2023/11/09 11:50:34;;;;;;;6.90;1.70;;;10.10;99.90;;;;;;5074527;28;20068;-69
2023/11/09 11:53:01;;;;;;;7.45;1.77;;;10.10;99.90;;;;;;5056076;28;20306;-70
2023/11/09 11:55:32;;;;;;;10.82;1.75;;;10.20;99.90;;;;;;5073612;28;20044;-69
2023/11/09 11:58:03;;;;;;;6.15;1.50;;;10.20;99.90;;;;;;5073721;28;20178;-69
2023/11/09 12:00:40;;;;;;;11.68;2.10;;;10.20;99.90;;;;;;5071137;28;20041;-69
2023/11/09 12:03:12;;;;;;;7.68;1.60;;;10.20;99.90;;;;;;5068173;28;20088;-70
2023/11/09 12:05:43;;;;;;;4.32;1.02;;;10.20;99.90;;;;;;5068903;28;20044;-69
2023/11/09 12:08:12;;;;;;;5.53;1.20;;;10.20;99.90;;;;;;5069874;28;20067;-69
2023/11/09 12:10:42;;;;;;;5.25;1.17;;;10.20;99.90;;;;;;5051684;28;20052;-70
2023/11/09 12:13:09;;;;;;;6.82;1.10;;;10.20;99.90;;;;;;5069070;28;20091;-69
2023/11/09 12:15:37;;;;;;;7.97;1.10;;;10.20;99.90;;;;;;5069082;28;20052;-69
2023/11/09 12:18:04;;;;;;;9.07;2.20;;;10.40;99.90;;;;;;5058358;28;20471;-70
2023/11/09 12:20:33;;;;;;;8.40;1.48;;;10.50;99.90;;;;;;5051397;28;20427;-70
2023/11/09 12:23:06;;;;;;;4.88;1.10;;;10.50;99.90;;;;;;5068955;28;20470;-70
2023/11/09 12:25:51;;;;;;;10.27;1.35;;;10.50;99.90;;;;;;5068479;28;20377;-70
2023/11/09 12:28:19;;;;;;;12.82;1.60;;;10.40;99.90;;;;;;5069388;28;20131;-70
2023/11/09 12:30:48;;;;;;;12.77;1.70;;;10.30;99.90;;;;;;5068704;28;20082;-70
2023/11/09 12:33:19;;;;;;;11.52;2.88;;;10.30;99.90;;;;;;5068895;28;20347;-70
2023/11/09 12:35:59;;;;;;;3.72;1.17;;;10.20;99.90;;;;;;5068680;28;20049;-69
2023/11/09 12:38:26;;;;;;;5.40;1.15;;;10.20;99.90;;;;;;5051303;28;20041;-70
2023/11/09 12:40:54;;;;;;;8.98;1.25;;;10.30;99.90;;;;;;5068330;28;20506;-70
2023/11/09 12:43:35;;;;;;;6.28;1.30;;;10.30;99.90;;;;;;5067986;28;20098;-70
2023/11/09 12:46:04;;;;;;;4.88;1.63;;;10.30;99.90;;;;;;5050797;28;20044;-70
2023/11/09 12:48:43;;;;;;;9.25;1.52;;;10.30;99.90;;;;;;5065917;28;20479;-69
2023/11/09 12:51:23;;;;;;;7.88;1.80;;;10.40;99.90;;;;;;5051875;28;20328;-71
2023/11/09 12:53:52;;;;;;;4.60;1.00;;;10.40;99.90;;;;;;5028234;28;20056;-70
2023/11/09 12:56:19;;;;;;;6.65;1.80;;;10.40;99.90;;;;;;5059684;28;20048;-70
2023/11/09 12:59:01;;;;;;;4.95;1.48;;;10.40;99.90;;;;;;5046409;28;20056;-70
2023/11/09 13:01:29;;;;;;;6.07;1.27;;;10.50;99.90;;;;;;5068870;28;20084;-70
2023/11/09 13:03:56;;;;;;;4.35;1.17;;;10.50;99.90;;;;;;5068136;28;20044;-70
2023/11/09 13:06:25;;;;;;;10.57;1.73;;;10.50;99.90;;;;;;5068018;28;20084;-70
2023/11/09 13:09:04;;;;;;;6.00;1.20;;;10.40;99.90;;;;;;5050869;28;20055;-68